Time;durP1;ratioP1;P1;durP2;ratioP2;P2;SDS_P1;SDS_P2;PMS_P1;PMS_P2;Temp;Humidity;BMP_temperature;BMP_pressure;BME280_temperature;BME280_humidity;BME280_pressure;Samples;Min_cycle;Max_cycle;Signal;HPM_P1;HPM_P2
2022/05/07 00:00:16;;;;;;;20.75;18.42;;;13.10;99.90;;;;;;5098534;28;20051;-72
2022/05/07 00:02:41;;;;;;;22.00;17.75;;;13.00;99.90;;;;;;5080940;28;20479;-72
2022/05/07 00:05:07;;;;;;;21.23;18.88;;;13.10;99.90;;;;;;5086733;28;20171;-73
2022/05/07 00:07:33;;;;;;;22.42;20.13;;;13.00;99.90;;;;;;5089326;28;20086;-73
2022/05/07 00:09:58;;;;;;;21.92;19.73;;;13.00;99.90;;;;;;5091627;28;20068;-73
2022/05/07 00:12:24;;;;;;;26.52;20.73;;;13.00;99.90;;;;;;5086180;28;20052;-73
2022/05/07 00:14:49;;;;;;;23.92;21.48;;;13.00;99.90;;;;;;5086784;28;20052;-73
2022/05/07 00:19:59;;;;;;;26.27;21.38;;;13.00;99.90;;;;;;5089973;28;20079;-73
2022/05/07 00:22:25;;;;;;;22.33;20.00;;;13.00;99.90;;;;;;5081224;28;20071;-73
2022/05/07 00:24:50;;;;;;;23.25;20.90;;;13.00;99.90;;;;;;5089182;28;20541;-73
2022/05/07 00:27:16;;;;;;;23.88;21.38;;;13.00;99.90;;;;;;5094117;28;20044;-73
2022/05/07 00:29:41;;;;;;;24.67;21.85;;;13.00;99.90;;;;;;5087106;28;20106;-73
2022/05/07 00:32:08;;;;;;;24.65;22.02;;;13.00;99.90;;;;;;5090820;28;20463;-73
2022/05/07 00:34:33;;;;;;;25.35;22.75;;;13.00;99.90;;;;;;5086915;28;20474;-72
2022/05/07 00:36:59;;;;;;;25.92;23.33;;;13.10;99.90;;;;;;5088211;28;20104;-72
2022/05/07 00:39:25;;;;;;;24.52;22.13;;;13.10;99.90;;;;;;5089428;28;20479;-73
2022/05/07 00:41:52;;;;;;;28.02;25.02;;;13.10;99.90;;;;;;5085577;28;20940;-72
2022/05/07 00:44:20;;;;;;;25.42;22.77;;;13.10;99.90;;;;;;5087141;28;20051;-72
2022/05/07 00:46:48;;;;;;;25.27;22.77;;;13.10;99.90;;;;;;5089437;28;20085;-73
2022/05/07 00:49:14;;;;;;;25.33;22.65;;;13.10;99.90;;;;;;5090013;28;20845;-72
2022/05/07 00:51:40;;;;;;;24.63;22.13;;;13.10;99.90;;;;;;5092121;28;20044;-72
2022/05/07 00:54:08;;;;;;;26.38;23.60;;;13.10;99.90;;;;;;5102190;28;20635;-72
2022/05/07 00:56:36;;;;;;;23.00;20.63;;;13.10;99.90;;;;;;5089628;28;20048;-72
2022/05/07 00:59:02;;;;;;;;;;;13.10;99.90;;;;;;5083514;28;20040;-72
2022/05/07 01:01:28;;;;;;;23.67;21.30;;;13.00;99.90;;;;;;5098559;28;19919;-72
2022/05/07 01:03:53;;;;;;;25.40;22.70;;;13.00;99.90;;;;;;5094724;28;20506;-72
2022/05/07 01:06:20;;;;;;;31.70;25.20;;;13.10;99.90;;;;;;5091944;28;20036;-73
2022/05/07 01:08:47;;;;;;;40.20;30.77;;;13.00;99.90;;;;;;5091772;28;20075;-73
2022/05/07 01:11:19;;;;;;;43.65;31.15;;;13.10;99.90;;;;;;5091737;28;20127;-72
2022/05/07 01:13:46;;;;;;;37.78;30.20;;;13.10;99.90;;;;;;5092200;28;20067;-72
2022/05/07 01:16:12;;;;;;;37.65;29.58;;;13.10;99.90;;;;;;5090198;28;20044;-72
2022/05/07 01:18:39;;;;;;;44.28;30.73;;;13.20;99.90;;;;;;5098295;28;20035;-72
2022/05/07 01:21:12;;;;;;;37.00;29.27;;;13.20;99.90;;;;;;5099797;28;20048;-72
2022/05/07 01:23:40;;;;;;;37.33;29.08;;;13.20;99.90;;;;;;5098895;28;20067;-72
2022/05/07 01:26:05;;;;;;;33.55;29.60;;;13.20;99.90;;;;;;5089295;28;20040;-72
2022/05/07 01:28:31;;;;;;;32.63;27.60;;;13.20;99.90;;;;;;5085436;28;20036;-72
2022/05/07 01:30:57;;;;;;;32.70;27.55;;;13.20;99.90;;;;;;5086668;28;20048;-72
2022/05/07 01:33:23;;;;;;;31.17;27.87;;;13.20;99.90;;;;;;5095303;28;20044;-72
2022/05/07 01:35:49;;;;;;;29.63;26.42;;;13.20;99.90;;;;;;5096209;28;20301;-72
2022/05/07 01:38:15;;;;;;;32.22;28.90;;;13.20;99.90;;;;;;5091655;28;20040;-72
2022/05/07 01:40:40;;;;;;;32.40;29.13;;;13.30;99.90;;;;;;5088502;28;20122;-72
2022/05/07 01:43:06;;;;;;;30.63;27.40;;;13.30;99.90;;;;;;5098576;28;20040;-72
2022/05/07 01:45:31;;;;;;;31.45;27.95;;;13.30;99.90;;;;;;5100665;28;20047;-72
2022/05/07 01:48:13;;;;;;;31.17;27.77;;;13.30;99.90;;;;;;5100885;28;20438;-72
2022/05/07 01:50:40;;;;;;;34.65;28.83;;;13.30;99.90;;;;;;5089754;28;20444;-72
2022/05/07 01:53:12;;;;;;;31.23;27.92;;;13.30;99.90;;;;;;5090596;28;20040;-72
2022/05/07 01:55:38;;;;;;;31.77;28.33;;;13.30;99.90;;;;;;5089630;28;20043;-72
2022/05/07 01:58:04;;;;;;;32.58;29.05;;;13.30;99.90;;;;;;5098954;28;20067;-72
2022/05/07 02:00:31;;;;;;;32.10;27.08;;;13.30;99.90;;;;;;5090562;28;20509;-72
2022/05/07 02:02:58;;;;;;;31.55;27.92;;;13.30;99.90;;;;;;5090115;28;20546;-72
2022/05/07 02:05:25;;;;;;;30.10;26.88;;;13.20;99.90;;;;;;5091510;28;20043;-72
2022/05/07 02:07:54;;;;;;;29.27;26.17;;;13.20;99.90;;;;;;5088090;28;20100;-72
2022/05/07 02:10:21;;;;;;;27.73;24.92;;;13.20;99.90;;;;;;5088080;28;20046;-72
2022/05/07 02:12:47;;;;;;;29.00;25.23;;;13.10;99.90;;;;;;5091963;28;20048;-72
2022/05/07 02:15:13;;;;;;;29.85;26.95;;;13.10;99.90;;;;;;5088607;28;20173;-72
2022/05/07 02:17:39;;;;;;;30.67;27.38;;;13.00;99.90;;;;;;5095036;28;20477;-73
2022/05/07 02:20:05;;;;;;;29.63;26.60;;;13.00;99.90;;;;;;5104953;28;20051;-72
2022/05/07 02:22:31;;;;;;;31.23;28.10;;;13.00;99.90;;;;;;5104602;28;20039;-72
2022/05/07 02:25:00;;;;;;;30.73;27.63;;;13.00;99.90;;;;;;5087438;28;22376;-72
2022/05/07 02:27:26;;;;;;;29.42;26.45;;;13.00;99.90;;;;;;5093111;28;20048;-72
2022/05/07 02:29:52;;;;;;;30.77;27.83;;;13.00;99.90;;;;;;5087046;28;20036;-72
2022/05/07 02:32:18;;;;;;;31.15;28.05;;;13.00;99.90;;;;;;5088677;28;20035;-72
2022/05/07 02:34:44;;;;;;;30.27;27.08;;;13.00;99.90;;;;;;5095408;28;20044;-72
2022/05/07 02:37:10;;;;;;;30.40;27.27;;;12.90;99.90;;;;;;5085884;28;20440;-72
2022/05/07 02:39:36;;;;;;;30.25;27.17;;;12.90;99.90;;;;;;5088724;28;20071;-72
2022/05/07 02:44:47;;;;;;;30.08;27.05;;;12.90;99.90;;;;;;5084119;28;20079;-72
2022/05/07 02:47:12;;;;;;;30.13;27.20;;;12.90;99.90;;;;;;5090028;28;20406;-72
2022/05/07 02:49:38;;;;;;;29.77;26.73;;;12.90;99.90;;;;;;5093656;28;20048;-72
2022/05/07 02:52:04;;;;;;;31.15;28.05;;;12.90;99.90;;;;;;5086892;28;20037;-72
2022/05/07 02:54:30;;;;;;;30.45;27.27;;;13.00;99.90;;;;;;5083315;28;20115;-72
2022/05/07 02:56:55;;;;;;;30.50;27.50;;;12.90;99.90;;;;;;5089370;28;20051;-72
2022/05/07 02:59:21;;;;;;;31.42;28.17;;;13.00;99.90;;;;;;5089818;28;20429;-72
2022/05/07 03:01:47;;;;;;;31.73;28.42;;;12.90;99.90;;;;;;5085962;28;20964;-72
2022/05/07 03:04:13;;;;;;;30.13;27.23;;;13.00;99.90;;;;;;5097331;28;20043;-72
2022/05/07 03:06:39;;;;;;;31.80;28.52;;;13.00;99.90;;;;;;5090804;28;20040;-72
2022/05/07 03:09:05;;;;;;;32.22;29.23;;;13.10;99.90;;;;;;5104267;28;20055;-73
2022/05/07 03:11:34;;;;;;;33.10;28.35;;;13.10;99.90;;;;;;5083318;28;20604;-72
2022/05/07 03:14:00;;;;;;;34.60;31.23;;;13.10;99.90;;;;;;5088448;28;20122;-72
2022/05/07 03:16:26;;;;;;;32.92;29.50;;;13.10;99.90;;;;;;5086221;28;20503;-73
2022/05/07 03:18:52;;;;;;;34.97;31.38;;;13.10;99.90;;;;;;5099456;28;20406;-72
2022/05/07 03:21:21;;;;;;;33.67;30.30;;;13.20;99.90;;;;;;5085318;28;20115;-72
2022/05/07 03:23:46;;;;;;;35.05;31.70;;;13.10;99.90;;;;;;5086025;28;20407;-72
2022/05/07 03:26:12;;;;;;;34.58;31.30;;;13.10;99.90;;;;;;5080110;28;20043;-72
2022/05/07 03:28:39;;;;;;;33.83;30.60;;;13.20;99.90;;;;;;5085916;28;20048;-73
2022/05/07 03:31:05;;;;;;;34.67;31.38;;;13.20;99.90;;;;;;5085126;28;20073;-72
2022/05/07 03:33:30;;;;;;;34.92;31.42;;;13.20;99.90;;;;;;5098135;28;20052;-73
2022/05/07 03:35:56;;;;;;;34.38;31.08;;;13.20;99.90;;;;;;5087550;28;20107;-73
2022/05/07 03:38:22;;;;;;;34.97;31.48;;;13.10;99.90;;;;;;5084287;28;20073;-72
2022/05/07 03:40:48;;;;;;;33.63;29.77;;;13.10;99.90;;;;;;5095699;28;20067;-72
2022/05/07 03:43:14;;;;;;;34.58;31.15;;;13.20;99.90;;;;;;5094127;28;20073;-72
2022/05/07 03:45:39;;;;;;;35.85;32.25;;;13.20;99.90;;;;;;5098152;28;20032;-72
2022/05/07 03:48:06;;;;;;;36.08;32.47;;;13.20;99.90;;;;;;5092334;28;20063;-72
2022/05/07 03:50:32;;;;;;;35.92;32.28;;;13.10;99.90;;;;;;5090860;28;20044;-72
2022/05/07 03:55:42;;;;;;;34.67;31.35;;;13.10;99.90;;;;;;5081685;28;20048;-72
2022/05/07 03:58:11;;;;;;;34.63;31.27;;;13.10;99.90;;;;;;5100551;28;20085;-72
2022/05/07 04:00:39;;;;;;;35.03;31.60;;;13.10;99.90;;;;;;5091623;28;20044;-72
2022/05/07 04:03:05;;;;;;;38.38;34.58;;;13.20;99.90;;;;;;5080651;28;20446;-72
2022/05/07 04:05:31;;;;;;;39.33;35.17;;;13.20;99.90;;;;;;5085205;28;20048;-73
2022/05/07 04:07:57;;;;;;;37.33;33.42;;;13.20;99.90;;;;;;5098872;28;20044;-72
2022/05/07 04:10:22;;;;;;;37.00;33.40;;;13.20;99.90;;;;;;5087567;28;20131;-72
2022/05/07 04:12:51;;;;;;;37.90;33.97;;;13.20;99.90;;;;;;5089197;28;20032;-73
2022/05/07 04:15:25;;;;;;;38.17;34.28;;;13.30;99.90;;;;;;5086240;28;20735;-72
2022/05/07 04:17:53;;;;;;;36.80;33.17;;;13.30;99.90;;;;;;5099060;28;20044;-72
2022/05/07 04:20:18;;;;;;;38.00;34.40;;;13.30;99.90;;;;;;5090433;28;20079;-72
2022/05/07 04:22:44;;;;;;;38.03;34.20;;;13.30;99.90;;;;;;5088605;28;20070;-72
2022/05/07 04:25:12;;;;;;;37.47;33.67;;;13.30;99.90;;;;;;5097581;28;20517;-72
2022/05/07 04:27:38;;;;;;;36.67;32.95;;;13.30;99.90;;;;;;5093262;28;20039;-72
2022/05/07 04:30:04;;;;;;;38.03;34.20;;;13.30;99.90;;;;;;5103795;28;20803;-72
2022/05/07 04:32:30;;;;;;;36.80;33.20;;;13.30;99.90;;;;;;5099535;28;20036;-72
2022/05/07 04:34:56;;;;;;;37.17;33.45;;;13.40;99.90;;;;;;5084920;28;20047;-72
2022/05/07 04:37:23;;;;;;;35.95;32.50;;;13.40;99.90;;;;;;5089623;28;20059;-71
2022/05/07 04:39:48;;;;;;;36.50;32.95;;;13.40;99.90;;;;;;5090547;28;20122;-72
2022/05/07 04:42:14;;;;;;;35.13;31.55;;;13.50;99.90;;;;;;5088460;28;20123;-73
2022/05/07 04:44:40;;;;;;;37.65;33.85;;;13.50;99.90;;;;;;5082434;28;20045;-72
2022/05/07 04:47:06;;;;;;;35.75;31.88;;;13.50;99.90;;;;;;5085400;28;20047;-72
2022/05/07 04:49:32;;;;;;;35.72;32.10;;;13.50;99.90;;;;;;5090184;28;20051;-73
2022/05/07 04:51:58;;;;;;;36.47;32.85;;;13.60;99.90;;;;;;5088063;28;20036;-73
2022/05/07 04:54:24;;;;;;;35.88;32.40;;;13.60;99.90;;;;;;5088432;28;20457;-73
2022/05/07 04:56:52;;;;;;;35.78;32.47;;;13.60;99.90;;;;;;5091029;28;20035;-72
2022/05/07 04:59:19;;;;;;;37.63;33.70;;;13.60;99.90;;;;;;5098728;28;20131;-72
2022/05/07 05:01:45;;;;;;;37.25;33.55;;;13.60;99.90;;;;;;5089589;28;20485;-72
2022/05/07 05:04:11;;;;;;;35.78;32.13;;;13.70;99.90;;;;;;5090774;28;20054;-72
2022/05/07 05:06:37;;;;;;;37.25;33.35;;;13.70;99.90;;;;;;5093184;28;20040;-72
2022/05/07 05:09:06;;;;;;;36.92;33.03;;;13.70;99.90;;;;;;5112122;28;20406;-72
2022/05/07 05:11:33;;;;;;;36.13;32.72;;;13.80;99.90;;;;;;5102495;28;20051;-72
2022/05/07 05:13:59;;;;;;;35.67;32.08;;;13.80;99.90;;;;;;5112485;28;20040;-73
2022/05/07 05:16:25;;;;;;;36.35;32.58;;;13.80;99.90;;;;;;5107585;28;20040;-73
2022/05/07 05:18:51;;;;;;;35.97;32.55;;;13.80;99.90;;;;;;5092605;28;20584;-73
2022/05/07 05:21:17;;;;;;;36.40;32.85;;;13.80;99.90;;;;;;5111657;27;20475;-73
2022/05/07 05:23:42;;;;;;;36.10;32.40;;;13.90;99.90;;;;;;5097814;28;20043;-73
2022/05/07 05:26:08;;;;;;;37.22;33.20;;;14.00;99.90;;;;;;5094796;28;20040;-72
2022/05/07 05:28:35;;;;;;;35.45;31.80;;;14.00;99.90;;;;;;5090275;28;20119;-73
2022/05/07 05:31:02;;;;;;;;;;;14.00;99.90;;;;;;5090570;28;20044;-72
2022/05/07 05:33:27;;;;;;;37.22;33.22;;;14.00;99.90;;;;;;5080274;28;19920;-73
2022/05/07 05:35:53;;;;;;;37.33;33.50;;;14.00;99.90;;;;;;5086701;28;20051;-72
2022/05/07 05:38:18;;;;;;;37.83;33.90;;;14.00;99.90;;;;;;5081420;28;20040;-74
2022/05/07 05:40:44;;;;;;;37.40;33.50;;;14.00;99.90;;;;;;5091286;28;20046;-75
2022/05/07 05:43:10;;;;;;;39.03;34.38;;;14.10;99.90;;;;;;5088749;28;20048;-75
2022/05/07 05:45:37;;;;;;;36.55;32.95;;;14.10;99.90;;;;;;5076524;28;20039;-75
2022/05/07 05:48:04;;;;;;;37.33;33.42;;;14.10;99.90;;;;;;5082555;28;20145;-75
2022/05/07 05:50:31;;;;;;;36.33;32.92;;;14.20;99.90;;;;;;5098167;28;20039;-75
2022/05/07 05:52:59;;;;;;;37.17;33.38;;;14.20;99.90;;;;;;5090369;28;20047;-74
2022/05/07 05:55:28;;;;;;;35.47;31.90;;;14.20;99.90;;;;;;5097518;28;20044;-74
2022/05/07 05:57:53;;;;;;;36.35;32.55;;;14.30;99.90;;;;;;5090044;28;20502;-75
2022/05/07 06:00:22;;;;;;;35.00;31.70;;;14.30;99.90;;;;;;5093075;28;20056;-74
2022/05/07 06:02:47;;;;;;;35.17;31.45;;;14.30;99.90;;;;;;5075673;28;20907;-74
2022/05/07 06:05:16;;;;;;;35.17;31.67;;;14.40;99.90;;;;;;5097705;28;20112;-74
2022/05/07 06:07:41;;;;;;;34.83;31.20;;;14.40;99.90;;;;;;5086722;28;20039;-74
2022/05/07 06:10:10;;;;;;;34.83;31.33;;;14.40;99.90;;;;;;5105724;28;20145;-74
2022/05/07 06:12:36;;;;;;;35.97;32.13;;;14.40;99.90;;;;;;5085172;28;20545;-74
2022/05/07 06:15:01;;;;;;;34.85;31.40;;;14.50;99.90;;;;;;5104643;28;20047;-74
2022/05/07 06:17:27;;;;;;;34.25;30.73;;;14.50;99.90;;;;;;5083651;28;21236;-74
2022/05/07 06:19:53;;;;;;;36.08;32.45;;;14.50;99.90;;;;;;5099050;28;20050;-74
2022/05/07 06:22:19;;;;;;;33.97;30.60;;;14.50;99.90;;;;;;5087505;28;20040;-74
2022/05/07 06:27:31;;;;;;;36.10;32.17;;;14.50;99.90;;;;;;5095403;28;20385;-74
2022/05/07 06:30:01;;;;;;;32.85;29.63;;;14.50;99.90;;;;;;5096121;28;20071;-73
2022/05/07 06:32:45;;;;;;;33.92;30.42;;;14.60;99.90;;;;;;5095093;28;20122;-73
2022/05/07 06:35:11;;;;;;;33.00;29.83;;;14.70;99.90;;;;;;5070099;28;20068;-73
2022/05/07 06:37:39;;;;;;;32.38;29.27;;;14.70;99.90;;;;;;5079229;28;20102;-73
2022/05/07 06:40:06;;;;;;;34.80;31.20;;;14.80;99.90;;;;;;5089754;28;20047;-74
2022/05/07 06:42:35;;;;;;;37.30;33.53;;;14.90;99.90;;;;;;5090204;28;20047;-73
2022/05/07 06:45:02;;;;;;;37.28;33.35;;;15.10;99.90;;;;;;5088225;28;20052;-73
2022/05/07 06:47:27;;;;;;;36.40;32.78;;;15.20;99.90;;;;;;5099230;28;20059;-73
2022/05/07 06:49:53;;;;;;;34.63;31.23;;;15.20;99.90;;;;;;5088036;28;21062;-73
2022/05/07 06:52:18;;;;;;;34.17;30.73;;;15.30;99.90;;;;;;5084127;28;20051;-74
2022/05/07 06:54:45;;;;;;;34.35;31.13;;;15.40;99.90;;;;;;5088987;28;20531;-74
2022/05/07 06:57:10;;;;;;;32.75;29.23;;;15.50;99.90;;;;;;5090510;28;20058;-74
2022/05/07 06:59:36;;;;;;;30.73;27.73;;;15.60;99.90;;;;;;5090404;28;20044;-74
2022/05/07 07:02:02;;;;;;;30.85;27.90;;;15.70;99.90;;;;;;5087469;28;20708;-74
2022/05/07 07:04:28;;;;;;;33.97;30.55;;;15.70;99.90;;;;;;5088720;28;20562;-74
2022/05/07 07:06:54;;;;;;;31.92;28.92;;;15.80;99.90;;;;;;5086843;28;20048;-74
2022/05/07 07:09:20;;;;;;;32.45;29.23;;;15.90;99.90;;;;;;5097430;28;20548;-74
2022/05/07 07:11:46;;;;;;;32.67;29.50;;;16.00;99.90;;;;;;5082496;28;20048;-74
2022/05/07 07:14:12;;;;;;;32.35;29.13;;;16.10;99.90;;;;;;5087576;28;20109;-74
2022/05/07 07:16:38;;;;;;;31.77;28.83;;;16.10;99.90;;;;;;5088185;28;20036;-75
2022/05/07 07:19:04;;;;;;;32.05;28.90;;;16.10;99.90;;;;;;5084037;28;20513;-74
2022/05/07 07:21:30;;;;;;;31.00;27.90;;;16.20;99.90;;;;;;5086693;28;20100;-74
2022/05/07 07:23:56;;;;;;;28.95;26.00;;;16.30;99.90;;;;;;5097479;28;20122;-76
2022/05/07 07:26:21;;;;;;;29.27;26.38;;;16.30;99.90;;;;;;5092245;28;20055;-73
2022/05/07 07:28:47;;;;;;;29.58;26.65;;;16.40;99.90;;;;;;5087461;28;20051;-75
2022/05/07 07:31:13;;;;;;;29.20;26.23;;;16.40;99.90;;;;;;5089258;28;20500;-74
2022/05/07 07:33:39;;;;;;;29.20;26.10;;;16.50;99.90;;;;;;5099997;28;20084;-74
2022/05/07 07:36:06;;;;;;;32.90;26.80;;;16.60;99.90;;;;;;5106900;28;20072;-75
2022/05/07 07:38:32;;;;;;;29.45;26.20;;;16.60;99.90;;;;;;5099467;28;20044;-75
2022/05/07 07:40:58;;;;;;;28.88;25.88;;;16.60;99.90;;;;;;5089262;28;20145;-75
2022/05/07 07:43:23;;;;;;;28.45;25.65;;;16.60;99.90;;;;;;5096986;28;20043;-75
2022/05/07 07:48:33;;;;;;;27.75;24.70;;;16.80;99.90;;;;;;5085454;28;20131;-74
2022/05/07 07:50:59;;;;;;;24.65;21.92;;;16.90;99.90;;;;;;5087388;28;20201;-74
2022/05/07 07:53:25;;;;;;;24.38;21.90;;;17.10;99.90;;;;;;5091053;28;20036;-73
2022/05/07 07:55:51;;;;;;;25.02;22.33;;;17.10;99.90;;;;;;5095918;28;20495;-72
2022/05/07 07:58:17;;;;;;;25.20;22.53;;;17.20;99.90;;;;;;5108190;28;20406;-73
2022/05/07 08:00:44;;;;;;;24.65;22.15;;;17.20;99.90;;;;;;5098926;28;20325;-73
2022/05/07 08:03:12;;;;;;;25.77;23.08;;;17.20;99.90;;;;;;5086829;28;20438;-73
2022/05/07 08:05:39;;;;;;;28.40;24.70;;;17.30;99.90;;;;;;5087490;28;20047;-73
2022/05/07 08:13:36;;;;;;;26.40;23.80;;;17.40;99.90;;;;;;5092396;28;20035;-73
2022/05/07 08:16:03;;;;;;;26.60;23.13;;;17.40;99.90;;;;;;5091114;28;20364;-76
2022/05/07 08:18:28;;;;;;;25.42;22.75;;;17.40;99.90;;;;;;5100203;28;20031;-76
2022/05/07 08:20:55;;;;;;;26.55;21.95;;;17.40;99.90;;;;;;5101356;28;20472;-75
2022/05/07 08:23:21;;;;;;;24.08;21.50;;;17.40;99.90;;;;;;5084798;28;20101;-74
2022/05/07 08:25:47;;;;;;;24.98;22.23;;;17.40;99.90;;;;;;5106891;28;20473;-74
2022/05/07 08:28:12;;;;;;;30.00;25.80;;;17.40;99.90;;;;;;5097852;28;20082;-74
2022/05/07 08:30:39;;;;;;;29.20;26.33;;;17.40;99.90;;;;;;5106492;28;20047;-74
2022/05/07 08:33:05;;;;;;;28.60;25.50;;;17.50;99.90;;;;;;5106973;28;20058;-74
2022/05/07 08:35:31;;;;;;;28.77;25.85;;;17.50;99.90;;;;;;5108285;28;20035;-74
2022/05/07 08:37:57;;;;;;;29.25;26.23;;;17.50;99.90;;;;;;5093089;28;20119;-74
2022/05/07 08:40:24;;;;;;;27.55;24.70;;;17.50;99.90;;;;;;5092867;28;20091;-73
2022/05/07 08:42:50;;;;;;;;;;;17.50;99.90;;;;;;5084954;28;20511;-75
2022/05/07 08:45:18;;;;;;;26.33;23.77;;;17.70;99.90;;;;;;5089678;28;19924;-80
2022/05/07 08:47:44;;;;;;;29.23;25.13;;;17.70;99.90;;;;;;5101649;28;20066;-76
2022/05/07 08:50:12;;;;;;;27.23;24.42;;;17.80;99.90;;;;;;5092703;28;20048;-74
2022/05/07 08:52:42;;;;;;;28.02;25.23;;;17.90;99.90;;;;;;5100951;28;20039;-74
2022/05/07 08:55:14;;;;;;;30.08;26.52;;;18.00;99.90;;;;;;5098482;28;20044;-75
2022/05/07 08:57:42;;;;;;;29.58;26.55;;;18.10;99.90;;;;;;5112103;28;20502;-74
2022/05/07 09:00:09;;;;;;;30.45;27.05;;;18.00;99.90;;;;;;5111408;28;20078;-74
2022/05/07 09:02:39;;;;;;;;;;;18.00;99.90;;;;;;5113335;28;20044;-74
2022/05/07 09:05:05;;;;;;;29.48;26.45;;;18.00;99.90;;;;;;5099183;28;19926;-74
2022/05/07 09:07:31;;;;;;;29.03;26.10;;;18.00;99.90;;;;;;5109802;28;20040;-74
2022/05/07 09:09:57;;;;;;;36.97;26.85;;;18.00;99.90;;;;;;5112848;28;20040;-74
2022/05/07 09:12:29;;;;;;;30.02;26.85;;;18.20;99.90;;;;;;5110167;28;20035;-75
2022/05/07 09:15:02;;;;;;;27.63;24.77;;;18.30;99.90;;;;;;5097120;28;20420;-74
2022/05/07 09:17:28;;;;;;;28.00;25.10;;;18.50;99.90;;;;;;5089542;28;20044;-74
2022/05/07 09:19:56;;;;;;;27.27;24.30;;;18.60;99.90;;;;;;5098709;28;20043;-75
2022/05/07 09:22:22;;;;;;;26.33;23.52;;;18.60;99.90;;;;;;5111861;28;20122;-74
2022/05/07 09:24:55;;;;;;;27.27;24.50;;;18.70;99.90;;;;;;5111421;28;20139;-73
2022/05/07 09:27:22;;;;;;;29.00;26.02;;;18.80;99.90;;;;;;5112098;28;20113;-74
2022/05/07 09:29:59;;;;;;;28.02;25.13;;;18.80;99.90;;;;;;5103099;28;20074;-74
2022/05/07 09:32:37;;;;;;;26.67;23.90;;;18.80;99.90;;;;;;5094521;28;20074;-75
2022/05/07 09:38:02;;;;;;;28.73;24.98;;;18.90;99.90;;;;;;5107278;28;20056;-77
2022/05/07 09:40:29;;;;;;;27.75;23.50;;;18.90;99.90;;;;;;5101099;28;20561;-74
2022/05/07 09:42:58;;;;;;;25.15;22.50;;;18.90;99.90;;;;;;5088728;28;20055;-75
2022/05/07 09:45:28;;;;;;;25.58;22.77;;;19.00;99.90;;;;;;5100518;28;20051;-76
2022/05/07 09:47:55;;;;;;;24.20;20.70;;;19.00;99.90;;;;;;5085929;28;20074;-76
2022/05/07 09:50:23;;;;;;;23.17;20.30;;;19.00;99.90;;;;;;5084922;28;20446;-77
2022/05/07 09:58:19;;;;;;;25.65;20.30;;;18.90;99.90;;;;;;5098309;28;20052;-75
2022/05/07 10:01:25;;;;;;;22.00;18.58;;;18.90;99.90;;;;;;5089513;28;20063;-73
2022/05/07 10:04:04;;;;;;;25.52;19.13;;;19.00;99.90;;;;;;5069512;28;20057;-74
2022/05/07 10:07:02;;;;;;;24.25;18.27;;;19.00;99.90;;;;;;5069587;28;20434;-74
2022/05/07 10:09:40;;;;;;;22.85;18.35;;;19.00;99.90;;;;;;5047099;28;20056;-74
2022/05/07 10:12:08;;;;;;;23.65;17.65;;;19.10;99.90;;;;;;5092063;28;20096;-74
2022/05/07 10:14:34;;;;;;;24.10;17.85;;;19.10;99.90;;;;;;5110895;28;20063;-73
2022/05/07 10:17:11;;;;;;;22.55;16.35;;;19.10;99.90;;;;;;5109385;28;20514;-74
2022/05/07 10:19:42;;;;;;;21.45;16.98;;;19.10;99.90;;;;;;5108862;28;20116;-74
2022/05/07 10:22:23;;;;;;;22.10;17.75;;;19.10;99.90;;;;;;5090677;28;20667;-74
2022/05/07 10:25:05;;;;;;;25.00;18.30;;;19.30;99.90;;;;;;5101115;28;20040;-72
2022/05/07 10:27:42;;;;;;;23.27;17.13;;;19.30;99.90;;;;;;5108983;28;20078;-73
2022/05/07 10:30:15;;;;;;;21.67;17.02;;;19.30;99.90;;;;;;5109469;28;20040;-74
2022/05/07 10:32:58;;;;;;;23.83;17.20;;;19.40;99.90;;;;;;5107650;28;20031;-73
2022/05/07 10:35:44;;;;;;;22.58;17.17;;;19.50;99.90;;;;;;5086577;28;20059;-73
2022/05/07 10:38:32;;;;;;;23.85;17.60;;;19.60;99.90;;;;;;5088323;28;20123;-73
2022/05/07 10:41:05;;;;;;;21.52;16.95;;;19.60;99.90;;;;;;5084192;28;20028;-74
2022/05/07 10:43:38;;;;;;;23.98;18.30;;;19.70;99.90;;;;;;5093925;28;20079;-75
2022/05/07 10:46:18;;;;;;;23.35;17.48;;;19.80;99.90;;;;;;5086294;28;20100;-72
2022/05/07 10:48:45;;;;;;;23.55;18.45;;;19.90;99.90;;;;;;5088012;28;20060;-73
2022/05/07 10:51:18;;;;;;;21.15;17.13;;;20.00;99.90;;;;;;5091100;28;20134;-74
2022/05/07 10:53:44;;;;;;;21.65;17.17;;;20.10;99.90;;;;;;5090770;28;20036;-74
2022/05/07 10:56:17;;;;;;;23.33;15.30;;;20.10;99.90;;;;;;5089829;28;20054;-74
2022/05/07 10:58:54;;;;;;;20.30;15.00;;;20.30;99.90;;;;;;5104594;28;20085;-73
2022/05/07 11:01:22;;;;;;;19.58;15.95;;;20.40;99.90;;;;;;5108434;28;20042;-75
2022/05/07 11:03:48;;;;;;;23.17;14.98;;;20.40;99.90;;;;;;5105211;28;20032;-75
2022/05/07 11:06:15;;;;;;;24.92;16.38;;;20.40;99.90;;;;;;5108067;28;20043;-75
2022/05/07 11:08:49;;;;;;;22.63;16.13;;;20.40;99.70;;;;;;5100741;28;20067;-75
2022/05/07 11:11:15;;;;;;;22.58;15.93;;;20.40;99.90;;;;;;5097351;28;20050;-75
2022/05/07 11:13:54;;;;;;;21.77;15.23;;;20.40;99.90;;;;;;5091256;28;20046;-75
2022/05/07 11:16:21;;;;;;;22.83;15.40;;;20.30;99.90;;;;;;5107280;28;20047;-75
2022/05/07 11:18:51;;;;;;;21.77;14.77;;;20.30;99.90;;;;;;5090802;28;20078;-75
2022/05/07 11:21:25;;;;;;;21.42;15.05;;;20.20;99.90;;;;;;5085320;28;20087;-75
2022/05/07 11:24:02;;;;;;;22.75;14.73;;;20.20;99.70;;;;;;5083402;28;20167;-75
2022/05/07 11:26:27;;;;;;;20.40;15.37;;;20.20;99.20;;;;;;5096810;28;20048;-75
2022/05/07 11:28:53;;;;;;;19.42;15.18;;;20.10;99.10;;;;;;5096968;28;20119;-75
2022/05/07 11:31:30;;;;;;;23.10;15.07;;;20.00;99.00;;;;;;5099477;28;20546;-75
2022/05/07 11:34:07;;;;;;;21.20;16.20;;;20.00;98.80;;;;;;5087937;28;20491;-75
2022/05/07 11:36:34;;;;;;;24.38;17.48;;;20.10;99.40;;;;;;5088847;28;20113;-75
2022/05/07 11:39:02;;;;;;;24.77;16.85;;;20.00;99.80;;;;;;5086049;28;20080;-75
2022/05/07 11:41:27;;;;;;;18.77;16.02;;;20.00;99.90;;;;;;5087553;28;20123;-75
2022/05/07 11:46:56;;;;;;;19.15;17.00;;;20.10;99.90;;;;;;5086134;28;20044;-75
2022/05/07 11:49:34;;;;;;;19.10;15.73;;;20.20;99.90;;;;;;5085816;28;20131;-75
2022/05/07 11:52:10;;;;;;;19.92;14.95;;;20.30;99.30;;;;;;5086620;28;20127;-75
2022/05/07 11:54:48;;;;;;;20.55;16.33;;;20.40;98.60;;;;;;5088674;28;20068;-75
2022/05/07 11:57:13;;;;;;;;;;;20.30;97.50;;;;;;5095621;28;20063;-76
2022/05/07 11:59:43;;;;;;;22.00;16.17;;;20.40;98.20;;;;;;5098514;28;19971;-76
2022/05/07 12:02:09;;;;;;;19.85;15.15;;;20.30;98.70;;;;;;5107801;28;20390;-75
2022/05/07 12:04:34;;;;;;;19.95;15.48;;;20.40;97.60;;;;;;5106324;28;20053;-73
2022/05/07 12:07:00;;;;;;;20.50;16.08;;;20.40;97.30;;;;;;5086078;28;20391;-74
2022/05/07 12:09:28;;;;;;;19.67;16.45;;;20.40;97.30;;;;;;5086974;28;20139;-75
2022/05/07 12:11:55;;;;;;;20.83;16.08;;;20.40;97.70;;;;;;5087661;28;20040;-78
2022/05/07 12:14:21;;;;;;;20.08;14.65;;;20.40;97.50;;;;;;5087992;28;20044;-75
2022/05/07 12:19:33;;;;;;;16.40;12.63;;;20.50;95.70;;;;;;5090872;28;20044;-75
2022/05/07 12:30:18;;;;;;;17.90;14.85;;;20.40;94.50;;;;;;5112525;28;20051;-75
2022/05/07 12:32:45;;;;;;;17.23;13.97;;;20.40;94.90;;;;;;5113147;28;20510;-75
2022/05/07 12:35:14;;;;;;;15.73;14.10;;;20.50;96.10;;;;;;5099452;28;20363;-76
2022/05/07 12:37:42;;;;;;;18.05;15.75;;;20.60;96.40;;;;;;5090944;28;20048;-76
2022/05/07 12:40:08;;;;;;;17.40;14.85;;;20.70;95.80;;;;;;5092244;28;20051;-75
2022/05/07 12:42:35;;;;;;;17.40;13.68;;;20.80;94.60;;;;;;5091638;28;20529;-76
2022/05/07 12:45:01;;;;;;;18.17;15.65;;;20.90;95.40;;;;;;5090939;28;20055;-76
2022/05/07 12:47:28;;;;;;;19.73;16.48;;;20.90;93.40;;;;;;5089170;28;21108;-75
2022/05/07 12:49:53;;;;;;;19.35;16.33;;;21.00;92.00;;;;;;5099536;28;20044;-76
2022/05/07 12:52:22;;;;;;;18.17;15.95;;;21.00;95.80;;;;;;5106065;28;20391;-76
2022/05/07 12:54:48;;;;;;;18.13;15.80;;;21.00;93.60;;;;;;5098329;28;20036;-76
2022/05/07 12:57:13;;;;;;;17.80;15.93;;;21.00;93.90;;;;;;5100818;27;20101;-77
2022/05/07 12:59:39;;;;;;;20.48;16.60;;;20.90;93.70;;;;;;5097085;28;20075;-73
2022/05/07 13:02:08;;;;;;;27.88;17.50;;;20.80;91.70;;;;;;5105018;28;20060;-74
2022/05/07 13:04:35;;;;;;;17.30;15.25;;;20.70;93.10;;;;;;5111417;28;20383;-74
2022/05/07 13:07:01;;;;;;;19.00;16.00;;;20.70;93.70;;;;;;5095504;28;20491;-74
2022/05/07 13:09:27;;;;;;;20.27;16.05;;;20.70;93.10;;;;;;5091953;28;20040;-73
2022/05/07 13:11:53;;;;;;;18.73;16.83;;;20.70;93.60;;;;;;5088934;28;20043;-74